Flight Track Log - Related Links

Times and Time Zones

All times are in EDT time to prevent confusion due to time zone crossing. See the AWE1772 flight status page for this flight to view local times or setup timezone preferences in your user account.

Time Position Orientation Groundspeed Altitude Reporting Facility
EDT Latitude Longitude Course Direction KTS MPH feet Rate Location/Type
Fri 09:55:12 AM 35.1892 -80.9508 246° West 175 201 1,700  Level Atlanta Center
Fri 09:55:49 AM 35.1600 -80.9519 182° South 166 191 2,600 1,102 Climbing Atlanta Center
Fri 09:56:50 AM 35.1022 -80.9772 200° South 258 297 3,500 1,770 Climbing Atlanta Center
Fri 09:57:51 AM 35.1064 -81.0683 273° West 290 334 6,200 2,500 Climbing Atlanta Center
Fri 09:58:02 AM 35.1086 -81.0758 290° West 277 319 6,500 1,775 Climbing Atlanta Center
Fri 09:59:00 AM 35.0643 -81.3501 251° West  Level FlightAware Approximate
Fri 09:59:02 AM 35.1214 -81.1667 280° West 288 331 8,300  Level Atlanta Center
Fri 10:00:00 AM 35.0194 -81.4843 246° West  Level FlightAware Approximate
Fri 10:00:02 AM 35.1131 -81.2586 264° West 293 337 10,300  Level Atlanta Center
Fri 10:01:02 AM 35.0797 -81.3561 247° West 295 339 11,600 1,550 Climbing Atlanta Center
Fri 10:02:02 AM 35.0383 -81.4717 246° West 321 369 13,400 2,000 Climbing Atlanta Center
Fri 10:03:02 AM 35.0008 -81.5817 247° West 340 391 15,600 1,850 Climbing Atlanta Center
Fri 10:04:02 AM 34.9656 -81.6969 250° West 360 414 17,100 1,550 Climbing Atlanta Center
Fri 10:05:02 AM 34.9281 -81.8119 248° West 360 414 18,700 1,450 Climbing Atlanta Center
Fri 10:06:02 AM 34.8736 -81.9197 238° Southwest 365 420 20,000 1,300 Climbing Atlanta Center
Fri 10:07:02 AM 34.8128 -82.0122 231° Southwest 372 428 21,300 1,350 Climbing Atlanta Center
Fri 10:08:02 AM 34.7561 -82.1225 238° Southwest 384 442 22,700 1,200 Climbing Atlanta Center
Fri 10:09:02 AM 34.6908 -82.2325 234° Southwest 394 453 23,700 1,050 Climbing Atlanta Center
Fri 10:10:02 AM 34.6278 -82.3450 236° Southwest 399 459 24,800 1,050 Climbing Atlanta Center
Fri 10:11:02 AM 34.5606 -82.4572 234° Southwest 406 467 25,800 900 Climbing Atlanta Center
Fri 10:12:02 AM 34.4950 -82.5719 235° Southwest 411 473 26,600 750 Climbing Atlanta Center
Fri 10:13:02 AM 34.4256 -82.6889 234° Southwest 418 481 27,300 800 Climbing Atlanta Center
Fri 10:14:02 AM 34.3578 -82.8108 236° Southwest 436 502 28,200 1,000 Climbing Atlanta Center
Fri 10:15:02 AM 34.2861 -82.9325 235° Southwest 441 507 29,300 1,150 Climbing Atlanta Center
Fri 10:16:02 AM 34.2161 -83.0542 235° Southwest 446 513 30,500 1,150 Climbing Atlanta Center
Fri 10:17:02 AM 34.1481 -83.1703 235° Southwest 446 513 31,600 1,150 Climbing Atlanta Center
Fri 10:18:02 AM 34.0800 -83.2889 235° Southwest 440 506 32,800 1,050 Climbing Atlanta Center
Fri 10:19:02 AM 34.0097 -83.4072 234° Southwest 440 506 33,700 600 Climbing Atlanta Center
Fri 10:20:02 AM 33.9414 -83.5181 233° Southwest 435 501 34,000 150 Climbing Atlanta Center
Fri 10:21:02 AM 33.8728 -83.6408 236° Southwest 435 501 34,000  Level Atlanta Center
Fri 10:22:02 AM 33.8189 -83.7736 244° Southwest 441 507 34,000  Level Atlanta Center
Fri 10:23:02 AM 33.7794 -83.9139 251° West 441 507 34,000  Level Atlanta Center
Fri 10:24:02 AM 33.7378 -84.0514 250° West 441 507 34,000  Level Atlanta Center
Fri 10:25:02 AM 33.7003 -84.1886 252° West 441 507 34,000  Level Atlanta Center
Fri 10:26:02 AM 33.6519 -84.3433 249° West 446 513 34,000  Level Atlanta Center
Fri 10:27:02 AM 33.6306 -84.4731 259° West 451 519 34,000  Level Atlanta Center
Fri 10:28:02 AM 33.6364 -84.6350 273° West 444 511 34,000  Level Atlanta Center
Fri 10:29:02 AM 33.6375 -84.7825 271° West 439 505 34,000  Level Atlanta Center
Fri 10:30:02 AM 33.6408 -84.9294 272° West 444 511 34,000  Level Atlanta Center
Fri 10:31:02 AM 33.6439 -85.0719 272° West 439 505 34,000  Level Atlanta Center
Fri 10:32:02 AM 33.6489 -85.2167 272° West 439 505 34,000  Level Atlanta Center
Fri 10:33:02 AM 33.6514 -85.3639 271° West 439 505 34,000  Level Atlanta Center
Fri 10:34:02 AM 33.6539 -85.5111 271° West 439 505 34,000  Level Atlanta Center
Fri 10:35:02 AM 33.6564 -85.6611 271° West 439 505 34,000  Level Atlanta Center
Fri 10:36:02 AM 33.6608 -85.7808 273° West 444 511 34,000  Level Atlanta Center
Fri 10:41:41 AM 33.6687 -86.6970 271° West 470 541 34,000  Level FlightAware ADS-B (KMDQ)
Fri 10:42:56 AM 33.6662 -86.8915 270° West 469 540 34,000  Level FlightAware ADS-B (KMDQ)
Fri 10:43:43 AM 33.6473 -87.0117 256° West 472 543 34,000  Level FlightAware ADS-B (KMDQ)
Fri 10:44:20 AM 33.6366 -87.0648 256° West 472 543 34,000  Level FlightAware ADS-B (KMDQ)
Fri 10:45:02 AM 33.6156 -87.1683 256° West 473 544 34,000  Level FlightAware ADS-B (KMDQ)
Fri 10:45:32 AM 33.5919 -87.2842 256° West 472 543 34,000  Level Memphis Center
Fri 10:46:02 AM 33.5767 -87.3400 252° West 481 554 34,000  Level Atlanta Center
Fri 10:46:34 AM 33.5600 -87.4375 258° West 472 543 34,000  Level Memphis Center
Fri 10:47:36 AM 33.5283 -87.5900 256° West 472 543 34,000  Level Memphis Center
Fri 10:48:38 AM 33.4961 -87.7439 256° West 473 544 34,000  Level Memphis Center
Fri 10:49:40 AM 33.4639 -87.8978 256° West 473 544 34,000  Level Memphis Center
Fri 10:50:42 AM 33.4308 -88.0506 256° West 473 544 34,000  Level Memphis Center
Fri 10:51:45 AM 33.3958 -88.2183 256° West 473 544 34,000  Level Memphis Center
Fri 10:52:47 AM 33.3619 -88.3689 255° West 473 544 34,000  Level Memphis Center
Fri 10:53:49 AM 33.3311 -88.5192 256° West 473 544 34,000  Level Memphis Center
Fri 10:54:51 AM 33.2914 -88.7000 255° West 472 543 34,000  Level Memphis Center
Fri 10:55:53 AM 33.2592 -88.8506 256° West 472 543 34,000  Level Memphis Center
Fri 10:56:55 AM 33.2258 -89.0006 255° West 472 543 34,000  Level Memphis Center
Fri 10:57:57 AM 33.1925 -89.1503 255° West 472 543 34,000  Level Memphis Center
Fri 10:58:59 AM 33.1586 -89.2994 255° West 471 542 34,000  Level Memphis Center
Fri 11:00:01 AM 33.1189 -89.4772 255° West 470 541 34,000  Level Memphis Center
Fri 11:01:03 AM 33.0858 -89.6250 255° West 470 541 34,000  Level Memphis Center
Fri 11:02:05 AM 33.0533 -89.7717 255° West 469 540 34,000  Level Memphis Center
Fri 11:03:08 AM 33.0136 -89.9453 255° West 469 540 34,000  Level Memphis Center
Fri 11:04:10 AM 32.9800 -90.0917 255° West 470 541 34,000  Level Memphis Center
Fri 11:05:12 AM 32.9458 -90.2367 254° West 467 537 34,000  Level Memphis Center
Fri 11:06:14 AM 32.9119 -90.3825 255° West 464 534 34,000  Level Memphis Center
Fri 11:07:16 AM 32.8783 -90.5289 255° West 464 534 34,000  Level Memphis Center
Fri 11:08:19 AM 32.8367 -90.7047 254° West 464 534 34,000  Level Memphis Center
Fri 11:09:20 AM 32.8022 -90.8511 254° West 464 534 34,000  Level Memphis Center
Fri 11:10:22 AM 32.7678 -90.9972 254° West 464 534 34,000  Level Memphis Center
Fri 11:11:24 AM 32.7339 -91.1436 255° West 464 534 34,000  Level Memphis Center
Fri 11:12:26 AM 32.6978 -91.2900 254° West 464 534 34,000  Level Memphis Center
Fri 11:18:09 AM 32.5091 -92.1517 266° West 457 526 34,000  Level FlightAware ADS-B
Fri 11:20:14 AM 32.4865 -92.4685 266° West 460 529 34,000  Level FlightAware ADS-B
Fri 11:20:33 AM 32.4841 -92.5012 266° West 460 529 34,000  Level FlightAware ADS-B
Fri 11:21:43 AM 32.4710 -92.6965 266° West 461 531 34,000  Level FlightAware ADS-B
Fri 11:22:15 AM 32.4654 -92.7789 266° West 461 531 34,000  Level FlightAware ADS-B
Fri 11:22:45 AM 32.4603 -92.8538 265° West 462 532 34,000  Level FlightAware ADS-B
Fri 11:23:45 AM 32.4499 -93.0041 265° West 462 532 34,000  Level FlightAware ADS-B
Fri 11:24:35 AM 32.4413 -93.1280 265° West 462 532 34,000  Level FlightAware ADS-B
Fri 11:25:05 AM 32.4358 -93.2059 265° West 463 533 34,000  Level FlightAware ADS-B
Fri 11:25:45 AM 32.4289 -93.3026 265° West 464 534 34,000  Level FlightAware ADS-B
Fri 11:25:47 AM 32.4284 -93.3101 266° West 463 533 34,000  Level FlightAware ADS-B
Fri 11:26:25 AM 32.4214 -93.4064 265° West 465 535 34,000  Level FlightAware ADS-B
Fri 11:26:32 AM 32.4207 -93.4157 266° West 464 534 34,000  Level FlightAware ADS-B
Fri 11:27:05 AM 32.4139 -93.5093 265° West 464 534 34,000  Level FlightAware ADS-B
Fri 11:27:18 AM 32.4160 -93.4812 266° West 463 533 34,000  Level FlightAware ADS-B
Fri 11:27:45 AM 32.4066 -93.6078 265° West 464 534 34,000  Level FlightAware ADS-B
Fri 11:27:55 AM 32.4047 -93.6345 266° West 463 533 34,000  Level FlightAware ADS-B
Fri 11:28:25 AM 32.3989 -93.7119 265° West 465 535 34,000  Level FlightAware ADS-B
Fri 11:28:49 AM 32.3947 -93.7677 265° West 465 535 34,000  Level FlightAware ADS-B
Fri 11:29:04 AM 32.3923 -93.7995 265° West 466 536 34,000  Level FlightAware ADS-B
Fri 11:29:25 AM 32.3874 -93.8634 265° West 465 535 34,000  Level FlightAware ADS-B
Fri 11:29:35 AM 32.3854 -93.8893 265° West 466 536 34,000  Level FlightAware ADS-B
Fri 11:30:05 AM 32.3796 -93.9656 265° West 467 537 34,000  Level FlightAware ADS-B
Fri 11:30:06 AM 32.3797 -93.9644 265° West 465 535 34,000  Level FlightAware ADS-B
Fri 11:30:35 AM 32.3737 -94.0416 265° West 467 537 34,000  Level FlightAware ADS-B
Fri 11:30:59 AM 32.3797 -93.9644 265° West 465 535 34,000  Level FlightAware ADS-B
Fri 11:31:37 AM 32.3616 -94.1973 265° West 467 537 34,000  Level FlightAware ADS-B
Fri 11:31:50 AM 32.3588 -94.2324 265° West 466 536 34,000  Level FlightAware ADS-B
Fri 11:32:21 AM 32.3527 -94.3090 265° West 468 539 34,000  Level FlightAware ADS-B
Fri 11:32:34 AM 32.3501 -94.3420 265° West 467 537 34,000  Level FlightAware ADS-B
Fri 11:32:51 AM 32.3478 -94.3704 265° West 467 537 34,000  Level FlightAware ADS-B
Fri 11:33:26 AM 32.3400 -94.4671 265° West 468 539 34,000  Level FlightAware ADS-B
Fri 11:33:27 AM 32.3403 -94.4636 265° West 468 539 34,000  Level FlightAware ADS-B
Fri 11:34:14 AM 32.3292 -94.5999 266° West 468 539 34,000  Level FlightAware ADS-B
Fri 11:34:31 AM 32.3259 -94.6407 265° West 468 539 34,000  Level FlightAware ADS-B
Fri 11:35:02 AM 32.3200 -94.7108 265° West 468 539 34,000  Level FlightAware ADS-B
Fri 11:35:20 AM 32.3158 -94.7620 265° West 468 539 34,000 -273 Level FlightAware ADS-B
Fri 11:35:46 AM 32.3102 -94.8290 264° West 468 539 33,800 -585 Descending FlightAware ADS-B
Fri 11:36:01 AM 32.3077 -94.8585 265° West 468 539 33,600 -933 Descending FlightAware ADS-B
Fri 11:36:31 AM 32.3005 -94.9441 265° West 471 542 33,100 -1,015 Descending FlightAware ADS-B
Fri 11:37:06 AM 32.2931 -95.0310 265° West 471 542 32,500 -952 Descending FlightAware ADS-B
Fri 11:37:34 AM 32.2877 -95.0947 265° West 469 540 32,100 -857 Descending FlightAware ADS-B
Fri 11:38:09 AM 32.2797 -95.1854 265° West 464 534 31,600 -971 Descending FlightAware ADS-B
Fri 11:38:42 AM 32.2716 -95.2778 265° West 466 536 31,000 -968 Descending FlightAware ADS-B
Fri 11:39:11 AM 32.2651 -95.3521 265° West 470 541 30,600 -1,017 Descending FlightAware ADS-B
Fri 11:39:41 AM 32.2580 -95.4306 265° West 472 543 30,000 -1,180 Descending FlightAware ADS-B
Fri 11:40:12 AM 32.2520 -95.4992 265° West 471 542 29,400 -1,826 Descending FlightAware ADS-B
Fri 11:40:50 AM 32.2429 -95.6006 264° West 466 536 27,900 -2,323 Descending FlightAware ADS-B
Fri 11:41:14 AM 32.2369 -95.6666 265° West 461 531 27,000 -2,215 Descending FlightAware ADS-B
Fri 11:41:55 AM 32.2284 -95.7599 264° West 453 521 25,500 -2,197 Descending FlightAware ADS-B
Fri 11:42:25 AM 32.2214 -95.8376 264° West 446 513 24,400 -2,634 Descending FlightAware ADS-B
Fri 11:42:36 AM 32.2202 -95.8661 264° West 448 516 23,700 -3,484 Descending FlightAware ADS-B
Fri 11:42:56 AM 32.2284 -95.9168 288° West 453 521 22,600 -2,679 Descending FlightAware ADS-B
Fri 11:43:32 AM 32.2500 -95.9918 289° West 429 494 21,200 -2,737 Descending FlightAware ADS-B
Fri 11:43:53 AM 32.2646 -96.0429 289° West 408 470 20,000 -2,154 Descending FlightAware ADS-B
Fri 11:44:11 AM 32.2757 -96.0817 289° West 404 465 19,800 -1,500 Descending FlightAware ADS-B
Fri 11:44:49 AM 32.2976 -96.1576 289° West 396 456 18,600 -1,826 Descending FlightAware ADS-B
Fri 11:45:20 AM 32.3158 -96.2203 289° West 387 445 17,700 -1,886 Descending FlightAware ADS-B
Fri 11:45:24 AM 32.3080 -96.1935 289° West 387 445 17,500 -2,087 Descending FlightAware ADS-B
Fri 11:45:43 AM 32.3353 -96.2628 302° West 385 443 16,900 -1,800 Descending FlightAware ADS-B
Fri 11:45:44 AM 32.3368 -96.2656 303° West 386 444 16,900 -1,043 Level FlightAware ADS-B
Fri 11:46:29 AM 32.3800 -96.3422 304° West 388 447 16,100 -1,100 Descending FlightAware ADS-B
Fri 11:46:44 AM 32.3960 -96.3706 304° West 385 443 15,800 -2,229 Descending FlightAware ADS-B
Fri 11:47:04 AM 32.4072 -96.3905 304° West 388 447 14,800 -2,600 Descending FlightAware ADS-B
Fri 11:47:44 AM 32.4571 -96.4785 304° West 392 451 13,200 -2,417 Descending FlightAware ADS-B
Fri 11:48:16 AM 32.4893 -96.5354 304° West 382 440 11,900 -1,519 Descending FlightAware ADS-B
Fri 11:49:03 AM 32.5346 -96.6156 304° West 360 414 11,200 -635 Descending FlightAware ADS-B
Fri 11:49:41 AM 32.5708 -96.6741 313° West 348 400 11,000 -164 Descending FlightAware ADS-B
Fri 11:50:16 AM 32.6044 -96.7142 315° West 339 390 11,000  Level FlightAware ADS-B
Fri 11:50:55 AM 32.6484 -96.7669 314° West 340 391 11,000  Level FlightAware ADS-B
Fri 11:51:02 AM 32.6592 -96.7799 314° West 339 390 11,000  Level FlightAware ADS-B
Fri 11:51:33 AM 32.6917 -96.8188 314° West 326 375 11,000  Level FlightAware ADS-B
Fri 11:52:04 AM 32.7259 -96.8596 315° West 326 375 11,000 -98 Level FlightAware ADS-B
Fri 11:52:34 AM 32.7591 -96.8907 337° Northwest 307 353 10,900 -480 Descending FlightAware ADS-B
Fri 11:52:54 AM 32.7855 -96.8940 North 295 339 10,600 -1,538 Descending FlightAware ADS-B
Fri 11:53:13 AM 32.8015 -96.8903 14° North 292 336 9,900 -1,610 Descending FlightAware ADS-B
Fri 11:53:35 AM 32.8390 -96.8796 13° North 293 337 9,500 -1,385 Descending FlightAware ADS-B
Fri 11:53:52 AM 32.8650 -96.8721 13° North 293 337 9,000 -1,733 Descending FlightAware ADS-B
Fri 11:54:20 AM 32.9038 -96.8621 North 289 333 8,200 -1,294 Descending FlightAware ADS-B
Fri 11:54:43 AM 32.9353 -96.8594 North 282 325 7,900 -706 Descending FlightAware ADS-B
Fri 11:54:54 AM 32.9450 -96.8590 360° North 279 321 7,800 -774 Descending FlightAware ADS-B
Fri 11:55:14 AM 32.9706 -96.8630 347° North 267 307 7,500 -1,463 Descending FlightAware ADS-B
Fri 11:55:35 AM 32.9954 -96.8706 344° North 268 308 6,800 -2,100 Descending FlightAware ADS-B
Fri 11:55:54 AM 33.0176 -96.8777 345° North 269 310 6,100 -2,053 Descending FlightAware ADS-B
Fri 11:56:13 AM 33.0406 -96.8850 345° North 268 308 5,500 -1,610 Descending FlightAware ADS-B
Fri 11:56:35 AM 33.0674 -96.8934 345° North 264 304 5,000 -714 Descending FlightAware ADS-B
Fri 11:56:55 AM 33.0891 -96.9049 320° Northwest 244 281 5,000  Level FlightAware ADS-B
Fri 11:57:04 AM 33.0954 -96.9140 303° West 236 272 5,000  Level FlightAware ADS-B
Fri 11:57:24 AM 33.1046 -96.9359 294° West 222 255 5,000 -300 Level FlightAware ADS-B
Fri 11:57:44 AM 33.1127 -96.9575 294° West 209 241 4,800 -588 Descending FlightAware ADS-B
Fri 11:58:15 AM 33.1197 -96.9902 271° West 185 213 4,500 -585 Descending FlightAware ADS-B
Fri 11:58:25 AM 33.1179 -97.0000 247° West 180 207 4,400 -900 Descending FlightAware ADS-B
Fri 11:58:35 AM 33.1129 -97.0074 223° Southwest 179 206 4,200 -857 Descending FlightAware ADS-B
Fri 11:58:46 AM 33.1045 -97.0126 202° Southwest 177 204 4,100 -400 Descending FlightAware ADS-B
Fri 11:59:05 AM 33.0904 -97.0192 201° Southwest 174 200 4,000 -632 Descending FlightAware ADS-B
Fri 11:59:24 AM 33.0756 -97.0238 187° South 171 197 3,700 -1,171 Descending FlightAware ADS-B
Fri 11:59:46 AM 33.0584 -97.0248 181° South 165 190 3,200 -1,171 Descending FlightAware ADS-B
Fri 12:00:05 PM 33.0426 -97.0252 180° South 167 192 2,900 -857 Descending FlightAware ADS-B
Fri 12:00:14 PM 33.0367 -97.0252 360° North 167 192 2,800 -889 Descending FlightAware ADS-B
Fri 12:00:32 PM 33.0227 -97.0254 180° South 164 189 2,500 -800 Descending FlightAware ADS-B
Fri 12:00:44 PM 33.0142 -97.0254 360° North 154 177 2,400 -800 Descending FlightAware ADS-B
Fri 12:01:02 PM 33.0034 -97.0255 180° South 148 170 2,100 -789 Descending FlightAware ADS-B
Fri 12:01:22 PM 32.9876 -97.0255 360° North 148 170 1,900 -732 Descending FlightAware ADS-B
Fri 12:01:43 PM 32.9733 -97.0256 180° South 146 168 1,600 -833 Descending FlightAware ADS-B
Fri 12:01:58 PM 32.9726 -97.0256 180° South 146 168 1,400 -700 Descending FlightAware ADS-B
Fri 12:02:43 PM 32.9314 -97.0264 180° South 148 170 900 -449 Descending Fort Worth Center
Fri 12:03:45 PM 32.8950 -97.0261 180° South 147 169 600 -290 Descending Fort Worth Center

Login

Don't have an account? Register now (free) for customized features, flight alerts, and more!